sensor_id;sensor_type;location;lat;lon;timestamp;temperature;humidity
23081;DHT22;11708;50.570;8.532;2023-04-03T00:01:57;5.40;99.90
23081;DHT22;11708;50.570;8.532;2023-04-03T00:04:22;5.40;99.90
23081;DHT22;11708;50.570;8.532;2023-04-03T00:06:48;5.20;99.90
23081;DHT22;11708;50.570;8.532;2023-04-03T00:09:13;5.40;99.90
23081;DHT22;11708;50.570;8.532;2023-04-03T00:11:39;5.40;99.90
23081;DHT22;11708;50.570;8.532;2023-04-03T00:14:04;5.40;99.90
23081;DHT22;11708;50.570;8.532;2023-04-03T00:16:30;5.50;99.90
23081;DHT22;11708;50.570;8.532;2023-04-03T00:18:55;5.50;99.90
23081;DHT22;11708;50.570;8.532;2023-04-03T00:21:21;5.50;99.90
23081;DHT22;11708;50.570;8.532;2023-04-03T00:23:46;5.50;99.90
23081;DHT22;11708;50.570;8.532;2023-04-03T00:26:12;5.50;99.90
23081;DHT22;11708;50.570;8.532;2023-04-03T00:28:38;5.50;99.90
23081;DHT22;11708;50.570;8.532;2023-04-03T00:31:03;5.50;99.90
23081;DHT22;11708;50.570;8.532;2023-04-03T00:33:29;5.50;99.90
23081;DHT22;11708;50.570;8.532;2023-04-03T00:35:54;5.50;99.90
23081;DHT22;11708;50.570;8.532;2023-04-03T00:38:20;5.50;99.90
23081;DHT22;11708;50.570;8.532;2023-04-03T00:40:47;5.50;99.90
23081;DHT22;11708;50.570;8.532;2023-04-03T00:43:25;5.50;99.90
23081;DHT22;11708;50.570;8.532;2023-04-03T00:45:56;5.50;99.90
23081;DHT22;11708;50.570;8.532;2023-04-03T00:48:43;5.50;99.90
23081;DHT22;11708;50.570;8.532;2023-04-03T00:51:13;5.50;99.90
23081;DHT22;11708;50.570;8.532;2023-04-03T00:53:46;5.50;99.90
23081;DHT22;11708;50.570;8.532;2023-04-03T00:56:14;5.50;99.90
23081;DHT22;11708;50.570;8.532;2023-04-03T00:58:46;5.50;99.90
23081;DHT22;11708;50.570;8.532;2023-04-03T01:01:18;5.50;99.90
23081;DHT22;11708;50.570;8.532;2023-04-03T01:03:44;5.50;99.90
23081;DHT22;11708;50.570;8.532;2023-04-03T01:06:10;5.50;99.90
23081;DHT22;11708;50.570;8.532;2023-04-03T01:08:36;5.50;99.90
23081;DHT22;11708;50.570;8.532;2023-04-03T01:11:02;5.60;99.90
23081;DHT22;11708;50.570;8.532;2023-04-03T01:13:31;5.50;99.90
23081;DHT22;11708;50.570;8.532;2023-04-03T01:15:59;5.50;99.90
23081;DHT22;11708;50.570;8.532;2023-04-03T01:18:26;5.50;99.90
23081;DHT22;11708;50.570;8.532;2023-04-03T01:25:52;5.50;99.90
23081;DHT22;11708;50.570;8.532;2023-04-03T01:28:33;5.50;99.90
23081;DHT22;11708;50.570;8.532;2023-04-03T01:33:47;5.50;99.90
23081;DHT22;11708;50.570;8.532;2023-04-03T01:36:19;5.50;99.90
23081;DHT22;11708;50.570;8.532;2023-04-03T01:38:44;5.50;99.90
23081;DHT22;11708;50.570;8.532;2023-04-03T01:41:10;5.40;99.90
23081;DHT22;11708;50.570;8.532;2023-04-03T01:43:35;5.40;99.90
23081;DHT22;11708;50.570;8.532;2023-04-03T01:46:01;5.40;99.90
23081;DHT22;11708;50.570;8.532;2023-04-03T01:48:27;5.40;99.90
23081;DHT22;11708;50.570;8.532;2023-04-03T01:50:53;5.40;99.90
23081;DHT22;11708;50.570;8.532;2023-04-03T01:53:18;5.40;99.90
23081;DHT22;11708;50.570;8.532;2023-04-03T01:55:44;5.40;99.90
23081;DHT22;11708;50.570;8.532;2023-04-03T01:58:10;5.30;99.90
23081;DHT22;11708;50.570;8.532;2023-04-03T02:00:36;5.30;99.90
23081;DHT22;11708;50.570;8.532;2023-04-03T02:03:02;5.30;99.90
23081;DHT22;11708;50.570;8.532;2023-04-03T02:05:27;5.30;99.90
23081;DHT22;11708;50.570;8.532;2023-04-03T02:07:53;5.30;99.90
23081;DHT22;11708;50.570;8.532;2023-04-03T02:10:19;5.20;99.90
23081;DHT22;11708;50.570;8.532;2023-04-03T02:12:44;5.20;99.90
23081;DHT22;11708;50.570;8.532;2023-04-03T02:15:10;5.20;99.90
23081;DHT22;11708;50.570;8.532;2023-04-03T02:17:36;5.20;99.90
23081;DHT22;11708;50.570;8.532;2023-04-03T02:20:02;5.20;99.90
23081;DHT22;11708;50.570;8.532;2023-04-03T02:22:28;5.10;99.90
23081;DHT22;11708;50.570;8.532;2023-04-03T02:24:54;5.10;99.90
23081;DHT22;11708;50.570;8.532;2023-04-03T02:27:19;5.10;99.90
23081;DHT22;11708;50.570;8.532;2023-04-03T02:29:45;5.10;99.90
23081;DHT22;11708;50.570;8.532;2023-04-03T02:32:11;5.00;99.90
23081;DHT22;11708;50.570;8.532;2023-04-03T02:34:36;5.00;99.90
23081;DHT22;11708;50.570;8.532;2023-04-03T02:37:02;5.00;99.90
23081;DHT22;11708;50.570;8.532;2023-04-03T02:39:27;4.90;99.90
23081;DHT22;11708;50.570;8.532;2023-04-03T02:41:53;4.90;99.90
23081;DHT22;11708;50.570;8.532;2023-04-03T02:44:18;4.90;99.90
23081;DHT22;11708;50.570;8.532;2023-04-03T02:46:44;5.00;99.90
23081;DHT22;11708;50.570;8.532;2023-04-03T02:49:10;4.90;99.90
23081;DHT22;11708;50.570;8.532;2023-04-03T02:51:35;4.80;99.90
23081;DHT22;11708;50.570;8.532;2023-04-03T02:54:01;4.80;99.90
23081;DHT22;11708;50.570;8.532;2023-04-03T02:56:26;4.80;99.90
23081;DHT22;11708;50.570;8.532;2023-04-03T02:58:52;4.80;99.90
23081;DHT22;11708;50.570;8.532;2023-04-03T03:01:18;4.70;99.90
23081;DHT22;11708;50.570;8.532;2023-04-03T03:03:43;4.70;99.90
23081;DHT22;11708;50.570;8.532;2023-04-03T03:06:14;4.60;99.90
23081;DHT22;11708;50.570;8.532;2023-04-03T03:08:40;4.60;99.90
23081;DHT22;11708;50.570;8.532;2023-04-03T03:11:06;4.50;99.90
23081;DHT22;11708;50.570;8.532;2023-04-03T03:13:32;4.50;99.90
23081;DHT22;11708;50.570;8.532;2023-04-03T03:15:58;4.50;99.90
23081;DHT22;11708;50.570;8.532;2023-04-03T03:18:24;4.40;99.90
23081;DHT22;11708;50.570;8.532;2023-04-03T03:20:54;4.40;99.90
23081;DHT22;11708;50.570;8.532;2023-04-03T03:23:21;4.30;99.90
23081;DHT22;11708;50.570;8.532;2023-04-03T03:25:48;4.30;99.90
23081;DHT22;11708;50.570;8.532;2023-04-03T03:28:14;4.20;99.90
23081;DHT22;11708;50.570;8.532;2023-04-03T03:30:40;4.10;99.90
23081;DHT22;11708;50.570;8.532;2023-04-03T03:33:06;4.10;99.90
23081;DHT22;11708;50.570;8.532;2023-04-03T03:35:32;4.10;99.90
23081;DHT22;11708;50.570;8.532;2023-04-03T03:37:58;4.00;99.90
23081;DHT22;11708;50.570;8.532;2023-04-03T03:40:23;4.00;99.90
23081;DHT22;11708;50.570;8.532;2023-04-03T03:42:49;3.90;99.90
23081;DHT22;11708;50.570;8.532;2023-04-03T03:45:15;3.80;99.90
23081;DHT22;11708;50.570;8.532;2023-04-03T03:47:40;3.80;99.90
23081;DHT22;11708;50.570;8.532;2023-04-03T03:50:06;3.80;99.90
23081;DHT22;11708;50.570;8.532;2023-04-03T03:52:32;3.70;99.90
23081;DHT22;11708;50.570;8.532;2023-04-03T03:54:57;3.70;99.90
23081;DHT22;11708;50.570;8.532;2023-04-03T03:57:23;3.60;99.90
23081;DHT22;11708;50.570;8.532;2023-04-03T03:59:49;3.50;99.90
23081;DHT22;11708;50.570;8.532;2023-04-03T04:02:16;3.50;99.90
23081;DHT22;11708;50.570;8.532;2023-04-03T04:04:42;3.40;99.90
23081;DHT22;11708;50.570;8.532;2023-04-03T04:07:07;3.30;99.90
23081;DHT22;11708;50.570;8.532;2023-04-03T04:09:33;3.30;99.90
23081;DHT22;11708;50.570;8.532;2023-04-03T04:11:58;3.20;99.90
23081;DHT22;11708;50.570;8.532;2023-04-03T04:14:24;3.10;99.90
23081;DHT22;11708;50.570;8.532;2023-04-03T04:16:49;3.10;99.90
23081;DHT22;11708;50.570;8.532;2023-04-03T04:19:15;3.00;99.90
23081;DHT22;11708;50.570;8.532;2023-04-03T04:21:40;3.00;99.90
23081;DHT22;11708;50.570;8.532;2023-04-03T04:24:07;2.90;99.90
23081;DHT22;11708;50.570;8.532;2023-04-03T04:26:32;2.90;99.90
23081;DHT22;11708;50.570;8.532;2023-04-03T04:28:58;2.80;99.90
23081;DHT22;11708;50.570;8.532;2023-04-03T04:31:23;2.80;99.90
23081;DHT22;11708;50.570;8.532;2023-04-03T04:33:49;2.70;99.90
23081;DHT22;11708;50.570;8.532;2023-04-03T04:36:15;2.60;99.90
23081;DHT22;11708;50.570;8.532;2023-04-03T04:38:41;2.60;99.90
23081;DHT22;11708;50.570;8.532;2023-04-03T04:41:07;2.60;99.90
23081;DHT22;11708;50.570;8.532;2023-04-03T04:43:33;2.60;99.90
23081;DHT22;11708;50.570;8.532;2023-04-03T04:46:07;2.60;99.90
23081;DHT22;11708;50.570;8.532;2023-04-03T04:48:34;2.50;99.90
23081;DHT22;11708;50.570;8.532;2023-04-03T04:51:02;2.50;99.90
23081;DHT22;11708;50.570;8.532;2023-04-03T04:53:27;2.50;99.90
23081;DHT22;11708;50.570;8.532;2023-04-03T04:55:53;2.50;99.90
23081;DHT22;11708;50.570;8.532;2023-04-03T04:58:19;2.40;99.90
23081;DHT22;11708;50.570;8.532;2023-04-03T05:00:46;2.40;99.90
23081;DHT22;11708;50.570;8.532;2023-04-03T05:03:12;2.40;99.90
23081;DHT22;11708;50.570;8.532;2023-04-03T05:05:38;2.40;99.90
23081;DHT22;11708;50.570;8.532;2023-04-03T05:08:04;2.40;99.90
23081;DHT22;11708;50.570;8.532;2023-04-03T05:10:33;2.40;99.90
23081;DHT22;11708;50.570;8.532;2023-04-03T05:12:58;2.30;99.90
23081;DHT22;11708;50.570;8.532;2023-04-03T05:15:24;2.40;99.90
23081;DHT22;11708;50.570;8.532;2023-04-03T05:17:50;2.30;99.90
23081;DHT22;11708;50.570;8.532;2023-04-03T05:20:16;2.30;99.90
23081;DHT22;11708;50.570;8.532;2023-04-03T05:22:42;2.30;99.90
23081;DHT22;11708;50.570;8.532;2023-04-03T05:25:08;2.30;99.90
23081;DHT22;11708;50.570;8.532;2023-04-03T05:27:33;2.30;99.90
23081;DHT22;11708;50.570;8.532;2023-04-03T05:29:59;2.30;99.90
23081;DHT22;11708;50.570;8.532;2023-04-03T05:32:25;2.30;99.90
23081;DHT22;11708;50.570;8.532;2023-04-03T05:34:53;2.20;99.90
23081;DHT22;11708;50.570;8.532;2023-04-03T05:37:19;2.30;99.90
23081;DHT22;11708;50.570;8.532;2023-04-03T05:39:45;2.20;99.90
23081;DHT22;11708;50.570;8.532;2023-04-03T05:42:11;2.30;99.90
23081;DHT22;11708;50.570;8.532;2023-04-03T05:44:37;2.20;99.90
23081;DHT22;11708;50.570;8.532;2023-04-03T05:47:04;2.20;99.90
23081;DHT22;11708;50.570;8.532;2023-04-03T05:49:30;2.20;99.90
23081;DHT22;11708;50.570;8.532;2023-04-03T05:51:56;2.20;99.90
23081;DHT22;11708;50.570;8.532;2023-04-03T05:54:26;2.20;99.90
23081;DHT22;11708;50.570;8.532;2023-04-03T05:56:53;2.00;99.90
23081;DHT22;11708;50.570;8.532;2023-04-03T05:59:19;2.20;99.90
23081;DHT22;11708;50.570;8.532;2023-04-03T06:01:45;2.30;99.90
23081;DHT22;11708;50.570;8.532;2023-04-03T06:04:12;2.30;99.90
23081;DHT22;11708;50.570;8.532;2023-04-03T06:06:51;2.30;99.90
23081;DHT22;11708;50.570;8.532;2023-04-03T06:09:20;2.40;99.90
23081;DHT22;11708;50.570;8.532;2023-04-03T06:11:47;2.40;99.90
23081;DHT22;11708;50.570;8.532;2023-04-03T06:14:13;2.40;99.90
23081;DHT22;11708;50.570;8.532;2023-04-03T06:16:39;2.80;99.90
23081;DHT22;11708;50.570;8.532;2023-04-03T06:19:05;2.50;99.90
23081;DHT22;11708;50.570;8.532;2023-04-03T06:21:32;2.50;99.90
23081;DHT22;11708;50.570;8.532;2023-04-03T06:23:58;2.60;99.90
23081;DHT22;11708;50.570;8.532;2023-04-03T06:26:23;2.60;99.90
23081;DHT22;11708;50.570;8.532;2023-04-03T06:28:49;2.70;99.90
23081;DHT22;11708;50.570;8.532;2023-04-03T06:31:14;2.70;99.90
23081;DHT22;11708;50.570;8.532;2023-04-03T06:33:40;2.80;99.90
23081;DHT22;11708;50.570;8.532;2023-04-03T06:36:06;2.80;99.90
23081;DHT22;11708;50.570;8.532;2023-04-03T06:38:33;2.80;99.90
23081;DHT22;11708;50.570;8.532;2023-04-03T06:40:59;2.90;99.90
23081;DHT22;11708;50.570;8.532;2023-04-03T06:43:25;2.90;99.90
23081;DHT22;11708;50.570;8.532;2023-04-03T06:45:51;2.90;99.90
23081;DHT22;11708;50.570;8.532;2023-04-03T06:48:17;2.90;99.90
23081;DHT22;11708;50.570;8.532;2023-04-03T06:50:43;2.90;99.90
23081;DHT22;11708;50.570;8.532;2023-04-03T06:53:09;3.00;99.90
23081;DHT22;11708;50.570;8.532;2023-04-03T06:55:34;3.00;99.90
23081;DHT22;11708;50.570;8.532;2023-04-03T06:58:01;3.00;99.90
23081;DHT22;11708;50.570;8.532;2023-04-03T07:00:26;3.00;99.90
23081;DHT22;11708;50.570;8.532;2023-04-03T07:02:53;3.00;99.90
23081;DHT22;11708;50.570;8.532;2023-04-03T07:05:19;3.00;99.90
23081;DHT22;11708;50.570;8.532;2023-04-03T07:07:44;3.00;99.90
23081;DHT22;11708;50.570;8.532;2023-04-03T07:10:10;3.10;99.90
23081;DHT22;11708;50.570;8.532;2023-04-03T07:12:37;3.10;99.90
23081;DHT22;11708;50.570;8.532;2023-04-03T07:15:04;3.10;99.90
23081;DHT22;11708;50.570;8.532;2023-04-03T07:17:30;3.20;99.90
23081;DHT22;11708;50.570;8.532;2023-04-03T07:19:56;3.20;99.90
23081;DHT22;11708;50.570;8.532;2023-04-03T07:22:22;3.30;99.90
23081;DHT22;11708;50.570;8.532;2023-04-03T07:24:47;3.40;99.90
23081;DHT22;11708;50.570;8.532;2023-04-03T07:27:13;3.40;99.90
23081;DHT22;11708;50.570;8.532;2023-04-03T07:29:39;3.40;99.90
23081;DHT22;11708;50.570;8.532;2023-04-03T07:32:05;3.40;99.90
23081;DHT22;11708;50.570;8.532;2023-04-03T07:36:58;3.50;99.90
23081;DHT22;11708;50.570;8.532;2023-04-03T07:39:24;3.40;99.90
23081;DHT22;11708;50.570;8.532;2023-04-03T07:41:50;3.50;99.90
23081;DHT22;11708;50.570;8.532;2023-04-03T07:44:15;3.50;99.90
23081;DHT22;11708;50.570;8.532;2023-04-03T07:46:41;3.70;99.90
23081;DHT22;11708;50.570;8.532;2023-04-03T07:49:07;3.50;99.90
23081;DHT22;11708;50.570;8.532;2023-04-03T07:51:33;3.50;99.90
23081;DHT22;11708;50.570;8.532;2023-04-03T07:53:59;3.50;99.90
23081;DHT22;11708;50.570;8.532;2023-04-03T07:56:24;3.50;99.90
23081;DHT22;11708;50.570;8.532;2023-04-03T07:58:53;3.50;99.90
23081;DHT22;11708;50.570;8.532;2023-04-03T08:01:19;3.60;99.90
23081;DHT22;11708;50.570;8.532;2023-04-03T08:03:44;3.60;99.90
23081;DHT22;11708;50.570;8.532;2023-04-03T08:06:10;3.60;99.90
23081;DHT22;11708;50.570;8.532;2023-04-03T08:08:36;3.60;99.90
23081;DHT22;11708;50.570;8.532;2023-04-03T08:11:02;3.60;99.90
23081;DHT22;11708;50.570;8.532;2023-04-03T08:13:29;3.70;99.90
23081;DHT22;11708;50.570;8.532;2023-04-03T08:15:56;3.70;99.90
23081;DHT22;11708;50.570;8.532;2023-04-03T08:18:23;3.80;99.90
23081;DHT22;11708;50.570;8.532;2023-04-03T08:20:50;3.80;99.90
23081;DHT22;11708;50.570;8.532;2023-04-03T08:23:17;3.90;99.90
23081;DHT22;11708;50.570;8.532;2023-04-03T08:25:43;3.90;99.90
23081;DHT22;11708;50.570;8.532;2023-04-03T08:28:11;4.00;99.90
23081;DHT22;11708;50.570;8.532;2023-04-03T08:30:41;4.20;99.90
23081;DHT22;11708;50.570;8.532;2023-04-03T08:33:08;4.30;99.90
23081;DHT22;11708;50.570;8.532;2023-04-03T08:35:38;4.30;99.90
23081;DHT22;11708;50.570;8.532;2023-04-03T08:38:04;4.40;99.90
23081;DHT22;11708;50.570;8.532;2023-04-03T08:40:30;4.40;99.90
23081;DHT22;11708;50.570;8.532;2023-04-03T08:45:55;4.50;99.90
23081;DHT22;11708;50.570;8.532;2023-04-03T08:48:29;4.50;99.90
23081;DHT22;11708;50.570;8.532;2023-04-03T08:51:03;4.60;99.90
23081;DHT22;11708;50.570;8.532;2023-04-03T08:53:34;4.60;99.90
23081;DHT22;11708;50.570;8.532;2023-04-03T08:56:06;4.70;99.90
23081;DHT22;11708;50.570;8.532;2023-04-03T08:58:41;4.80;99.90
23081;DHT22;11708;50.570;8.532;2023-04-03T09:01:25;4.80;99.90
23081;DHT22;11708;50.570;8.532;2023-04-03T09:03:52;4.70;99.90
23081;DHT22;11708;50.570;8.532;2023-04-03T09:06:26;4.80;99.90
23081;DHT22;11708;50.570;8.532;2023-04-03T09:17:36;5.10;99.90
23081;DHT22;11708;50.570;8.532;2023-04-03T09:22:50;5.30;99.90
23081;DHT22;11708;50.570;8.532;2023-04-03T09:25:28;5.50;99.90
23081;DHT22;11708;50.570;8.532;2023-04-03T09:28:00;5.50;99.90
23081;DHT22;11708;50.570;8.532;2023-04-03T09:30:27;5.60;99.90
23081;DHT22;11708;50.570;8.532;2023-04-03T09:32:56;5.60;99.90
23081;DHT22;11708;50.570;8.532;2023-04-03T09:35:27;5.60;99.90
23081;DHT22;11708;50.570;8.532;2023-04-03T09:41:05;5.80;99.90
23081;DHT22;11708;50.570;8.532;2023-04-03T09:43:33;5.90;99.90
23081;DHT22;11708;50.570;8.532;2023-04-03T09:46:24;5.90;99.90
23081;DHT22;11708;50.570;8.532;2023-04-03T09:48:55;5.90;99.90
23081;DHT22;11708;50.570;8.532;2023-04-03T09:51:25;6.00;99.90
23081;DHT22;11708;50.570;8.532;2023-04-03T09:53:53;6.00;99.90
23081;DHT22;11708;50.570;8.532;2023-04-03T09:56:21;6.00;99.90
23081;DHT22;11708;50.570;8.532;2023-04-03T10:01:33;5.90;99.90
23081;DHT22;11708;50.570;8.532;2023-04-03T10:04:12;5.90;99.90
23081;DHT22;11708;50.570;8.532;2023-04-03T10:06:49;6.00;99.90
23081;DHT22;11708;50.570;8.532;2023-04-03T10:09:22;6.00;99.90
23081;DHT22;11708;50.570;8.532;2023-04-03T10:12:11;6.10;99.90
23081;DHT22;11708;50.570;8.532;2023-04-03T10:14:39;6.20;99.90
23081;DHT22;11708;50.570;8.532;2023-04-03T10:17:36;6.20;99.90
23081;DHT22;11708;50.570;8.532;2023-04-03T10:20:15;6.30;99.90
23081;DHT22;11708;50.570;8.532;2023-04-03T10:23:02;6.40;99.90
23081;DHT22;11708;50.570;8.532;2023-04-03T10:36:33;6.70;99.90
23081;DHT22;11708;50.570;8.532;2023-04-03T10:42:02;7.00;99.90
23081;DHT22;11708;50.570;8.532;2023-04-03T10:50:44;7.50;99.90
23081;DHT22;11708;50.570;8.532;2023-04-03T10:53:37;7.70;99.90
23081;DHT22;11708;50.570;8.532;2023-04-03T10:56:30;7.90;99.90
23081;DHT22;11708;50.570;8.532;2023-04-03T11:01:32;8.30;99.90
23081;DHT22;11708;50.570;8.532;2023-04-03T11:04:00;8.40;99.90
23081;DHT22;11708;50.570;8.532;2023-04-03T11:06:45;8.40;99.90
23081;DHT22;11708;50.570;8.532;2023-04-03T11:09:30;8.60;99.90
23081;DHT22;11708;50.570;8.532;2023-04-03T11:12:11;8.80;99.90
23081;DHT22;11708;50.570;8.532;2023-04-03T11:14:39;8.90;99.90
23081;DHT22;11708;50.570;8.532;2023-04-03T11:19:47;9.00;99.90
23081;DHT22;11708;50.570;8.532;2023-04-03T11:22:28;9.00;99.90
23081;DHT22;11708;50.570;8.532;2023-04-03T11:25:06;9.00;99.90
23081;DHT22;11708;50.570;8.532;2023-04-03T11:27:55;9.10;99.90
23081;DHT22;11708;50.570;8.532;2023-04-03T11:30:52;9.30;99.90
23081;DHT22;11708;50.570;8.532;2023-04-03T11:36:30;9.70;99.90
23081;DHT22;11708;50.570;8.532;2023-04-03T11:39:07;10.00;99.90
23081;DHT22;11708;50.570;8.532;2023-04-03T11:41:35;10.30;99.90
23081;DHT22;11708;50.570;8.532;2023-04-03T11:44:13;10.50;99.40
23081;DHT22;11708;50.570;8.532;2023-04-03T11:47:02;10.90;99.90
23081;DHT22;11708;50.570;8.532;2023-04-03T12:13:35;12.10;93.00
23081;DHT22;11708;50.570;8.532;2023-04-03T12:16:02;12.20;92.80
23081;DHT22;11708;50.570;8.532;2023-04-03T12:21:15;12.50;92.00
23081;DHT22;11708;50.570;8.532;2023-04-03T12:26:27;13.00;90.10
23081;DHT22;11708;50.570;8.532;2023-04-03T12:28:56;13.30;89.90
23081;DHT22;11708;50.570;8.532;2023-04-03T12:31:24;13.50;85.00
23081;DHT22;11708;50.570;8.532;2023-04-03T12:34:38;13.60;85.30
23081;DHT22;11708;50.570;8.532;2023-04-03T12:45:52;14.20;85.40
23081;DHT22;11708;50.570;8.532;2023-04-03T12:48:26;14.70;84.70
23081;DHT22;11708;50.570;8.532;2023-04-03T12:50:52;15.00;79.10
23081;DHT22;11708;50.570;8.532;2023-04-03T12:53:27;15.10;76.00
23081;DHT22;11708;50.570;8.532;2023-04-03T12:55:57;15.10;76.70
23081;DHT22;11708;50.570;8.532;2023-04-03T12:58:27;15.20;79.60
23081;DHT22;11708;50.570;8.532;2023-04-03T13:01:14;15.40;76.30
23081;DHT22;11708;50.570;8.532;2023-04-03T13:03:45;15.50;76.20
23081;DHT22;11708;50.570;8.532;2023-04-03T13:06:18;15.70;75.50
23081;DHT22;11708;50.570;8.532;2023-04-03T13:08:58;15.70;74.50
23081;DHT22;11708;50.570;8.532;2023-04-03T13:11:30;15.50;73.80
23081;DHT22;11708;50.570;8.532;2023-04-03T13:14:01;15.30;75.50
23081;DHT22;11708;50.570;8.532;2023-04-03T13:16:28;15.30;75.50
23081;DHT22;11708;50.570;8.532;2023-04-03T13:18:55;14.90;72.70
23081;DHT22;11708;50.570;8.532;2023-04-03T13:21:33;15.00;75.00
23081;DHT22;11708;50.570;8.532;2023-04-03T13:24:01;15.40;75.10
23081;DHT22;11708;50.570;8.532;2023-04-03T13:26:30;15.80;74.70
23081;DHT22;11708;50.570;8.532;2023-04-03T13:29:03;16.20;73.40
23081;DHT22;11708;50.570;8.532;2023-04-03T13:31:32;16.50;69.70
23081;DHT22;11708;50.570;8.532;2023-04-03T13:34:12;16.60;69.60
23081;DHT22;11708;50.570;8.532;2023-04-03T13:36:42;17.20;75.40
23081;DHT22;11708;50.570;8.532;2023-04-03T13:41:40;16.90;66.90
23081;DHT22;11708;50.570;8.532;2023-04-03T13:46:53;16.90;73.00
23081;DHT22;11708;50.570;8.532;2023-04-03T13:49:33;17.20;66.80
23081;DHT22;11708;50.570;8.532;2023-04-03T13:51:59;17.50;67.50
23081;DHT22;11708;50.570;8.532;2023-04-03T13:54:36;18.10;66.60
23081;DHT22;11708;50.570;8.532;2023-04-03T13:57:03;18.20;63.50
23081;DHT22;11708;50.570;8.532;2023-04-03T13:59:36;18.30;61.40
23081;DHT22;11708;50.570;8.532;2023-04-03T14:04:43;17.80;61.70
23081;DHT22;11708;50.570;8.532;2023-04-03T14:07:10;17.80;61.40
23081;DHT22;11708;50.570;8.532;2023-04-03T14:09:36;17.70;60.20
23081;DHT22;11708;50.570;8.532;2023-04-03T14:12:30;17.50;61.60
23081;DHT22;11708;50.570;8.532;2023-04-03T14:14:52;17.70;63.50
23081;DHT22;11708;50.570;8.532;2023-04-03T14:17:21;17.80;60.80
23081;DHT22;11708;50.570;8.532;2023-04-03T14:19:47;17.80;60.30
23081;DHT22;11708;50.570;8.532;2023-04-03T14:22:17;17.50;59.30
23081;DHT22;11708;50.570;8.532;2023-04-03T14:24:43;17.00;59.60
23081;DHT22;11708;50.570;8.532;2023-04-03T14:27:40;16.90;62.70
23081;DHT22;11708;50.570;8.532;2023-04-03T14:30:22;17.10;62.20
23081;DHT22;11708;50.570;8.532;2023-04-03T14:32:49;17.40;62.00
23081;DHT22;11708;50.570;8.532;2023-04-03T14:35:16;17.60;59.90
23081;DHT22;11708;50.570;8.532;2023-04-03T14:37:42;17.80;58.30
23081;DHT22;11708;50.570;8.532;2023-04-03T14:40:11;18.00;58.20
23081;DHT22;11708;50.570;8.532;2023-04-03T14:42:37;17.90;58.30
23081;DHT22;11708;50.570;8.532;2023-04-03T14:45:07;17.70;58.40
23081;DHT22;11708;50.570;8.532;2023-04-03T14:47:34;17.50;58.30
23081;DHT22;11708;50.570;8.532;2023-04-03T14:50:02;17.60;57.80
23081;DHT22;11708;50.570;8.532;2023-04-03T14:52:33;17.50;57.30
23081;DHT22;11708;50.570;8.532;2023-04-03T14:55:00;17.30;58.30
23081;DHT22;11708;50.570;8.532;2023-04-03T14:57:28;17.50;57.50
23081;DHT22;11708;50.570;8.532;2023-04-03T14:59:54;17.70;57.90
23081;DHT22;11708;50.570;8.532;2023-04-03T15:04:55;18.20;58.70
23081;DHT22;11708;50.570;8.532;2023-04-03T15:07:22;18.50;57.80
23081;DHT22;11708;50.570;8.532;2023-04-03T15:09:48;18.30;57.20
23081;DHT22;11708;50.570;8.532;2023-04-03T15:12:14;17.90;56.40
23081;DHT22;11708;50.570;8.532;2023-04-03T15:14:40;17.20;57.30
23081;DHT22;11708;50.570;8.532;2023-04-03T15:17:15;16.90;58.40
23081;DHT22;11708;50.570;8.532;2023-04-03T15:19:42;17.00;59.00
23081;DHT22;11708;50.570;8.532;2023-04-03T15:22:13;17.10;58.20
23081;DHT22;11708;50.570;8.532;2023-04-03T15:24:40;17.20;57.60
23081;DHT22;11708;50.570;8.532;2023-04-03T15:27:05;17.60;57.00
23081;DHT22;11708;50.570;8.532;2023-04-03T15:29:31;18.00;57.00
23081;DHT22;11708;50.570;8.532;2023-04-03T15:31:56;18.40;55.50
23081;DHT22;11708;50.570;8.532;2023-04-03T15:34:22;18.60;55.20
23081;DHT22;11708;50.570;8.532;2023-04-03T15:36:48;18.70;62.40
23081;DHT22;11708;50.570;8.532;2023-04-03T15:39:13;18.70;55.20
23081;DHT22;11708;50.570;8.532;2023-04-03T15:41:39;18.90;53.80
23081;DHT22;11708;50.570;8.532;2023-04-03T15:44:05;19.00;54.80
23081;DHT22;11708;50.570;8.532;2023-04-03T15:46:30;19.40;54.00
23081;DHT22;11708;50.570;8.532;2023-04-03T15:48:57;19.60;52.50
23081;DHT22;11708;50.570;8.532;2023-04-03T15:51:23;19.30;51.40
23081;DHT22;11708;50.570;8.532;2023-04-03T15:53:48;18.60;52.80
23081;DHT22;11708;50.570;8.532;2023-04-03T15:56:14;17.90;53.70
23081;DHT22;11708;50.570;8.532;2023-04-03T15:58:40;17.00;54.40
23081;DHT22;11708;50.570;8.532;2023-04-03T16:01:05;15.90;55.90
23081;DHT22;11708;50.570;8.532;2023-04-03T16:03:31;15.10;57.50
23081;DHT22;11708;50.570;8.532;2023-04-03T16:05:57;14.60;59.50
23081;DHT22;11708;50.570;8.532;2023-04-03T16:08:22;14.80;59.40
23081;DHT22;11708;50.570;8.532;2023-04-03T16:10:48;15.40;58.50
23081;DHT22;11708;50.570;8.532;2023-04-03T16:13:14;15.90;58.10
23081;DHT22;11708;50.570;8.532;2023-04-03T16:15:41;16.30;57.10
23081;DHT22;11708;50.570;8.532;2023-04-03T16:18:07;16.90;57.20
23081;DHT22;11708;50.570;8.532;2023-04-03T16:20:34;17.50;56.10
23081;DHT22;11708;50.570;8.532;2023-04-03T16:23:00;17.80;54.90
23081;DHT22;11708;50.570;8.532;2023-04-03T16:25:26;17.90;54.60
23081;DHT22;11708;50.570;8.532;2023-04-03T16:27:53;18.20;54.20
23081;DHT22;11708;50.570;8.532;2023-04-03T16:30:18;18.20;53.90
23081;DHT22;11708;50.570;8.532;2023-04-03T16:32:44;18.60;53.80
23081;DHT22;11708;50.570;8.532;2023-04-03T16:35:10;18.60;53.40
23081;DHT22;11708;50.570;8.532;2023-04-03T16:37:37;18.60;53.50
23081;DHT22;11708;50.570;8.532;2023-04-03T16:40:03;18.60;52.20
23081;DHT22;11708;50.570;8.532;2023-04-03T16:42:30;18.50;52.90
23081;DHT22;11708;50.570;8.532;2023-04-03T16:44:56;18.40;53.30
23081;DHT22;11708;50.570;8.532;2023-04-03T16:47:21;18.10;53.10
23081;DHT22;11708;50.570;8.532;2023-04-03T16:49:47;17.90;53.50
23081;DHT22;11708;50.570;8.532;2023-04-03T16:52:13;17.50;52.90
23081;DHT22;11708;50.570;8.532;2023-04-03T16:54:39;16.70;53.20
23081;DHT22;11708;50.570;8.532;2023-04-03T16:57:04;15.90;55.30
23081;DHT22;11708;50.570;8.532;2023-04-03T16:59:31;15.10;57.30
23081;DHT22;11708;50.570;8.532;2023-04-03T17:01:57;14.30;60.10
23081;DHT22;11708;50.570;8.532;2023-04-03T17:04:22;13.70;60.10
23081;DHT22;11708;50.570;8.532;2023-04-03T17:06:48;12.60;68.20
23081;DHT22;11708;50.570;8.532;2023-04-03T17:09:14;12.50;63.20
23081;DHT22;11708;50.570;8.532;2023-04-03T17:11:40;12.00;63.70
23081;DHT22;11708;50.570;8.532;2023-04-03T17:14:05;11.60;64.50
23081;DHT22;11708;50.570;8.532;2023-04-03T17:16:33;11.10;66.50
23081;DHT22;11708;50.570;8.532;2023-04-03T17:18:59;10.80;67.00
23081;DHT22;11708;50.570;8.532;2023-04-03T17:21:25;10.60;67.50
23081;DHT22;11708;50.570;8.532;2023-04-03T17:23:57;10.40;68.60
23081;DHT22;11708;50.570;8.532;2023-04-03T17:26:25;10.40;69.60
23081;DHT22;11708;50.570;8.532;2023-04-03T17:28:51;10.20;71.10
23081;DHT22;11708;50.570;8.532;2023-04-03T17:31:16;10.20;72.00
23081;DHT22;11708;50.570;8.532;2023-04-03T17:33:43;10.10;73.00
23081;DHT22;11708;50.570;8.532;2023-04-03T17:36:09;9.90;72.90